sensor_id;sensor_type;location;lat;lon;timestamp;pressure;altitude;pressure_sealevel;temperature;humidity
7018;BME280;3549;42.162;24.726;2023-05-02T00:01:41;47580.59;;;-141.97;76.43
7018;BME280;3549;42.162;24.726;2023-05-02T00:04:07;47594.03;;;-141.97;76.40
7018;BME280;3549;42.162;24.726;2023-05-02T00:06:32;47609.41;;;-141.97;75.71
7018;BME280;3549;42.162;24.726;2023-05-02T00:08:58;47615.19;;;-141.97;75.30
7018;BME280;3549;42.162;24.726;2023-05-02T00:11:23;47617.09;;;-141.97;75.24
7018;BME280;3549;42.162;24.726;2023-05-02T00:13:49;47626.72;;;-141.97;75.27
7018;BME280;3549;42.162;24.726;2023-05-02T00:16:15;47599.81;;;-141.97;74.87
7018;BME280;3549;42.162;24.726;2023-05-02T00:18:40;47607.50;;;-141.97;74.78
7018;BME280;3549;42.162;24.726;2023-05-02T00:21:06;47586.34;;;-141.97;74.14
7018;BME280;3549;42.162;24.726;2023-05-02T00:23:33;47569.06;;;-141.97;73.50
7018;BME280;3549;42.162;24.726;2023-05-02T00:25:58;47603.66;;;-141.97;73.19
7018;BME280;3549;42.162;24.726;2023-05-02T00:28:24;47634.41;;;-141.97;73.21
7018;BME280;3549;42.162;24.726;2023-05-02T00:30:51;47622.88;;;-141.97;72.90
7018;BME280;3549;42.162;24.726;2023-05-02T00:33:16;47644.00;;;-141.97;72.67
7018;BME280;3549;42.162;24.726;2023-05-02T00:35:42;47622.88;;;-141.97;72.50
7018;BME280;3549;42.162;24.726;2023-05-02T00:38:07;47620.94;;;-141.97;72.46
7018;BME280;3549;42.162;24.726;2023-05-02T00:43:09;47634.41;;;-141.97;72.67
7018;BME280;3549;42.162;24.726;2023-05-02T00:45:35;47624.78;;;-141.97;72.45
7018;BME280;3549;42.162;24.726;2023-05-02T00:48:01;47597.88;;;-141.97;72.44
7018;BME280;3549;42.162;24.726;2023-05-02T00:50:27;47588.28;;;-141.97;71.83
7018;BME280;3549;42.162;24.726;2023-05-02T00:52:54;47624.78;;;-141.97;71.80
7018;BME280;3549;42.162;24.726;2023-05-02T00:55:19;47615.19;;;-141.97;71.23
7018;BME280;3549;42.162;24.726;2023-05-02T00:57:45;47622.88;;;-141.97;71.28
7018;BME280;3549;42.162;24.726;2023-05-02T01:00:11;47603.66;;;-141.97;71.34
7018;BME280;3549;42.162;24.726;2023-05-02T01:02:57;47586.34;;;-141.97;72.06
7018;BME280;3549;42.162;24.726;2023-05-02T01:08:41;47628.63;;;-141.97;71.06
7018;BME280;3549;42.162;24.726;2023-05-02T01:11:15;47599.81;;;-141.97;71.36
7018;BME280;3549;42.162;24.726;2023-05-02T01:13:42;47628.63;;;-141.97;71.34
7018;BME280;3549;42.162;24.726;2023-05-02T01:16:11;47605.56;;;-141.97;71.40
7018;BME280;3549;42.162;24.726;2023-05-02T01:18:40;47617.09;;;-141.97;71.75
7018;BME280;3549;42.162;24.726;2023-05-02T01:21:08;47615.19;;;-141.97;71.79
7018;BME280;3549;42.162;24.726;2023-05-02T01:26:38;47624.78;;;-141.97;71.13
7018;BME280;3549;42.162;24.726;2023-05-02T01:29:10;47603.66;;;-141.97;71.13
7018;BME280;3549;42.162;24.726;2023-05-02T01:31:40;47624.78;;;-141.97;70.50
7018;BME280;3549;42.162;24.726;2023-05-02T01:34:09;47592.13;;;-141.97;70.70
7018;BME280;3549;42.162;24.726;2023-05-02T01:36:35;47644.00;;;-141.97;70.06
7018;BME280;3549;42.162;24.726;2023-05-02T01:39:02;47636.31;;;-141.97;69.60
7018;BME280;3549;42.162;24.726;2023-05-02T01:41:32;47634.41;;;-141.97;69.18
7018;BME280;3549;42.162;24.726;2023-05-02T01:44:00;47630.56;;;-141.97;68.42
7018;BME280;3549;42.162;24.726;2023-05-02T01:46:32;47580.59;;;-141.97;69.11
7018;BME280;3549;42.162;24.726;2023-05-02T01:49:02;47584.44;;;-141.97;69.06
7018;BME280;3549;42.162;24.726;2023-05-02T01:51:30;47574.81;;;-141.97;69.26
7018;BME280;3549;42.162;24.726;2023-05-02T01:54:07;47622.88;;;-141.97;68.71
7018;BME280;3549;42.162;24.726;2023-05-02T01:56:34;47613.25;;;-141.97;68.77
7018;BME280;3549;42.162;24.726;2023-05-02T01:59:04;47665.16;;;-141.97;69.02
7018;BME280;3549;42.162;24.726;2023-05-02T02:01:31;47620.94;;;-141.97;69.10
7018;BME280;3549;42.162;24.726;2023-05-02T02:03:58;47663.22;;;-141.97;69.04
7018;BME280;3549;42.162;24.726;2023-05-02T02:06:24;47630.56;;;-141.97;69.64
7018;BME280;3549;42.162;24.726;2023-05-02T02:08:51;47592.13;;;-141.97;69.66
7018;BME280;3549;42.162;24.726;2023-05-02T02:11:23;47622.88;;;-141.97;69.72
7018;BME280;3549;42.162;24.726;2023-05-02T02:13:53;47630.56;;;-141.97;69.76
7018;BME280;3549;42.162;24.726;2023-05-02T02:16:23;47615.19;;;-141.97;70.08
7018;BME280;3549;42.162;24.726;2023-05-02T02:18:53;47726.66;;;-141.97;69.83
7018;BME280;3549;42.162;24.726;2023-05-02T02:21:22;47630.56;;;-141.97;69.62
7018;BME280;3549;42.162;24.726;2023-05-02T02:23:50;47615.19;;;-141.97;69.66
7018;BME280;3549;42.162;24.726;2023-05-02T02:26:19;47630.56;;;-141.97;70.08
7018;BME280;3549;42.162;24.726;2023-05-02T02:28:47;47636.31;;;-141.97;69.75
7018;BME280;3549;42.162;24.726;2023-05-02T02:31:12;47626.72;;;-141.97;69.85
7018;BME280;3549;42.162;24.726;2023-05-02T02:33:38;47638.25;;;-141.97;70.00
7018;BME280;3549;42.162;24.726;2023-05-02T02:36:11;47665.16;;;-141.97;69.52
7018;BME280;3549;42.162;24.726;2023-05-02T02:41:32;47632.47;;;-141.97;70.55
7018;BME280;3549;42.162;24.726;2023-05-02T02:44:10;47674.78;;;-141.97;70.62
7018;BME280;3549;42.162;24.726;2023-05-02T02:46:46;47622.88;;;-141.97;70.84
7018;BME280;3549;42.162;24.726;2023-05-02T02:49:46;47763.19;;;-141.97;71.00
7018;BME280;3549;42.162;24.726;2023-05-02T02:55:22;47651.69;;;-141.97;70.79
7018;BME280;3549;42.162;24.726;2023-05-02T02:58:30;47597.88;;;-141.97;70.68
7018;BME280;3549;42.162;24.726;2023-05-02T03:01:03;47651.69;;;-141.97;71.02
7018;BME280;3549;42.162;24.726;2023-05-02T03:03:31;47624.78;;;-141.97;71.04
7018;BME280;3549;42.162;24.726;2023-05-02T03:05:58;47640.16;;;-141.97;70.88
7018;BME280;3549;42.162;24.726;2023-05-02T03:08:23;47622.88;;;-141.97;71.36
7018;BME280;3549;42.162;24.726;2023-05-02T03:10:49;47667.06;;;-141.97;72.32
7018;BME280;3549;42.162;24.726;2023-05-02T03:13:15;47615.19;;;-141.97;72.58
7018;BME280;3549;42.162;24.726;2023-05-02T03:18:18;47615.19;;;-141.97;72.93
7018;BME280;3549;42.162;24.726;2023-05-02T03:20:44;47580.59;;;-141.97;72.96
7018;BME280;3549;42.162;24.726;2023-05-02T03:23:09;47590.19;;;-141.97;72.86
7018;BME280;3549;42.162;24.726;2023-05-02T03:25:35;47659.38;;;-141.97;72.73
7018;BME280;3549;42.162;24.726;2023-05-02T03:28:01;47657.47;;;-141.97;72.26
7018;BME280;3549;42.162;24.726;2023-05-02T03:30:29;47634.41;;;-141.97;72.05
7018;BME280;3549;42.162;24.726;2023-05-02T03:32:58;47592.13;;;-141.97;71.87
7018;BME280;3549;42.162;24.726;2023-05-02T03:35:24;47597.88;;;-141.97;71.93
7018;BME280;3549;42.162;24.726;2023-05-02T03:37:49;47572.91;;;-141.97;72.95
7018;BME280;3549;42.162;24.726;2023-05-02T03:40:15;47607.50;;;-141.97;75.61
7018;BME280;3549;42.162;24.726;2023-05-02T03:42:41;47605.56;;;-141.97;77.44
7018;BME280;3549;42.162;24.726;2023-05-02T03:45:07;47630.56;;;-141.97;78.12
7018;BME280;3549;42.162;24.726;2023-05-02T03:47:33;47663.22;;;-141.97;77.90
7018;BME280;3549;42.162;24.726;2023-05-02T03:49:58;47626.72;;;-141.97;77.33
7018;BME280;3549;42.162;24.726;2023-05-02T03:52:25;47792.03;;;-141.97;76.26
7018;BME280;3549;42.162;24.726;2023-05-02T03:54:50;47624.78;;;-141.97;75.17
7018;BME280;3549;42.162;24.726;2023-05-02T03:57:16;47636.31;;;-141.97;74.23
7018;BME280;3549;42.162;24.726;2023-05-02T03:59:42;47615.19;;;-141.97;73.55
7018;BME280;3549;42.162;24.726;2023-05-02T04:02:10;47628.63;;;-141.97;73.38
7018;BME280;3549;42.162;24.726;2023-05-02T04:04:36;47649.78;;;-141.97;73.02
7018;BME280;3549;42.162;24.726;2023-05-02T04:07:01;47613.25;;;-141.97;72.67
7018;BME280;3549;42.162;24.726;2023-05-02T04:09:27;47624.78;;;-141.97;72.44
7018;BME280;3549;42.162;24.726;2023-05-02T04:11:52;47622.88;;;-141.97;71.95
7018;BME280;3549;42.162;24.726;2023-05-02T04:14:18;47565.22;;;-141.97;71.52
7018;BME280;3549;42.162;24.726;2023-05-02T04:16:50;47653.63;;;-141.97;71.54
7018;BME280;3549;42.162;24.726;2023-05-02T04:19:17;47634.41;;;-141.97;70.96
7018;BME280;3549;42.162;24.726;2023-05-02T04:21:43;47657.47;;;-141.97;70.40
7018;BME280;3549;42.162;24.726;2023-05-02T04:24:09;47653.63;;;-141.97;70.18
7018;BME280;3549;42.162;24.726;2023-05-02T04:26:35;47722.81;;;-141.97;70.68
7018;BME280;3549;42.162;24.726;2023-05-02T04:29:00;47630.56;;;-141.97;69.66
7018;BME280;3549;42.162;24.726;2023-05-02T04:31:25;47703.59;;;-141.97;68.78
7018;BME280;3549;42.162;24.726;2023-05-02T04:33:51;47634.41;;;-141.97;68.26
7018;BME280;3549;42.162;24.726;2023-05-02T04:36:17;47680.53;;;-141.97;69.05
7018;BME280;3549;42.162;24.726;2023-05-02T04:38:43;47630.56;;;-141.97;68.33
7018;BME280;3549;42.162;24.726;2023-05-02T04:41:09;47620.94;;;-141.97;68.39
7018;BME280;3549;42.162;24.726;2023-05-02T04:43:34;47594.03;;;-141.97;67.96
7018;BME280;3549;42.162;24.726;2023-05-02T04:46:00;47636.31;;;-141.97;68.00
7018;BME280;3549;42.162;24.726;2023-05-02T04:48:26;47613.25;;;-141.97;66.87
7018;BME280;3549;42.162;24.726;2023-05-02T04:50:51;47745.88;;;-141.97;66.31
7018;BME280;3549;42.162;24.726;2023-05-02T04:53:21;47603.66;;;-141.97;68.42
7018;BME280;3549;42.162;24.726;2023-05-02T04:55:46;47632.47;;;-141.97;69.03
7018;BME280;3549;42.162;24.726;2023-05-02T04:58:12;47628.63;;;-141.97;68.30
7018;BME280;3549;42.162;24.726;2023-05-02T05:00:37;47651.69;;;-141.97;67.16
7018;BME280;3549;42.162;24.726;2023-05-02T05:03:03;47588.28;;;-141.97;66.80
7018;BME280;3549;42.162;24.726;2023-05-02T05:05:30;47584.44;;;-141.97;65.41
7018;BME280;3549;42.162;24.726;2023-05-02T05:07:56;47651.69;;;-141.97;64.20
7018;BME280;3549;42.162;24.726;2023-05-02T05:10:21;47626.72;;;-141.97;64.23
7018;BME280;3549;42.162;24.726;2023-05-02T05:12:46;47601.72;;;-141.97;62.42
7018;BME280;3549;42.162;24.726;2023-05-02T05:15:14;47626.72;;;-141.97;60.70
7018;BME280;3549;42.162;24.726;2023-05-02T05:17:39;47611.34;;;-141.97;59.34
7018;BME280;3549;42.162;24.726;2023-05-02T05:20:05;47569.06;;;-141.97;53.56
7018;BME280;3549;42.162;24.726;2023-05-02T05:22:37;47597.88;;;-141.97;51.78
7018;BME280;3549;42.162;24.726;2023-05-02T05:25:03;47570.97;;;-141.97;51.39
7018;BME280;3549;42.162;24.726;2023-05-02T05:27:28;47715.13;;;-141.97;51.31
7018;BME280;3549;42.162;24.726;2023-05-02T05:29:54;47590.19;;;-141.97;50.96
7018;BME280;3549;42.162;24.726;2023-05-02T05:32:19;47611.34;;;-141.97;51.02
7018;BME280;3549;42.162;24.726;2023-05-02T05:34:50;47622.88;;;-141.97;51.33
7018;BME280;3549;42.162;24.726;2023-05-02T05:37:16;47613.25;;;-141.97;50.36
7018;BME280;3549;42.162;24.726;2023-05-02T05:39:41;47763.19;;;-141.97;50.01
7018;BME280;3549;42.162;24.726;2023-05-02T05:42:07;47611.34;;;-141.97;50.41
7018;BME280;3549;42.162;24.726;2023-05-02T05:44:34;47549.84;;;-141.97;50.68
7018;BME280;3549;42.162;24.726;2023-05-02T05:47:00;47588.28;;;-141.97;50.87
7018;BME280;3549;42.162;24.726;2023-05-02T05:49:25;47615.19;;;-141.97;51.13
7018;BME280;3549;42.162;24.726;2023-05-02T05:51:50;47588.28;;;-141.97;51.41
7018;BME280;3549;42.162;24.726;2023-05-02T05:54:16;47595.97;;;-141.97;51.97
7018;BME280;3549;42.162;24.726;2023-05-02T05:56:42;47599.81;;;-141.97;52.72
7018;BME280;3549;42.162;24.726;2023-05-02T05:59:08;47624.78;;;-141.97;52.57
7018;BME280;3549;42.162;24.726;2023-05-02T06:01:33;47636.31;;;-141.97;51.55
7018;BME280;3549;42.162;24.726;2023-05-02T06:04:00;47584.44;;;-141.97;51.05
7018;BME280;3549;42.162;24.726;2023-05-02T06:06:27;47630.56;;;-141.97;52.18
7018;BME280;3549;42.162;24.726;2023-05-02T06:08:53;47605.56;;;-141.97;52.17
7018;BME280;3549;42.162;24.726;2023-05-02T06:11:19;47674.78;;;-141.97;51.49
7018;BME280;3549;42.162;24.726;2023-05-02T06:13:44;47584.44;;;-141.97;52.25
7018;BME280;3549;42.162;24.726;2023-05-02T06:16:09;47613.25;;;-141.97;51.08
7018;BME280;3549;42.162;24.726;2023-05-02T06:18:35;47597.88;;;-141.97;51.87
7018;BME280;3549;42.162;24.726;2023-05-02T06:21:04;47599.81;;;-141.97;50.72
7018;BME280;3549;42.162;24.726;2023-05-02T06:23:30;47580.59;;;-141.97;49.81
7018;BME280;3549;42.162;24.726;2023-05-02T06:26:01;47619.03;;;-141.97;49.94
7018;BME280;3549;42.162;24.726;2023-05-02T06:28:27;47570.97;;;-141.97;49.08
7018;BME280;3549;42.162;24.726;2023-05-02T06:30:59;47582.50;;;-141.97;49.46
7018;BME280;3549;42.162;24.726;2023-05-02T06:33:29;47615.19;;;-141.97;47.43
7018;BME280;3549;42.162;24.726;2023-05-02T06:35:55;47588.28;;;-141.97;47.79
7018;BME280;3549;42.162;24.726;2023-05-02T06:38:20;47578.66;;;-141.97;46.79
7018;BME280;3549;42.162;24.726;2023-05-02T06:40:46;47574.81;;;-141.97;46.20
7018;BME280;3549;42.162;24.726;2023-05-02T06:43:12;47622.88;;;-141.97;47.05
7018;BME280;3549;42.162;24.726;2023-05-02T06:45:39;47588.28;;;-141.97;46.49
7018;BME280;3549;42.162;24.726;2023-05-02T06:48:04;47617.09;;;-141.97;45.55
7018;BME280;3549;42.162;24.726;2023-05-02T06:50:30;47603.66;;;-141.97;46.25
7018;BME280;3549;42.162;24.726;2023-05-02T06:52:55;47599.81;;;-141.97;46.11
7018;BME280;3549;42.162;24.726;2023-05-02T06:55:21;47563.28;;;-141.97;45.21
7018;BME280;3549;42.162;24.726;2023-05-02T06:57:48;47597.88;;;-141.97;45.50
7018;BME280;3549;42.162;24.726;2023-05-02T07:00:15;47569.06;;;-141.97;45.49
7018;BME280;3549;42.162;24.726;2023-05-02T07:02:41;47586.34;;;-141.97;44.95
7018;BME280;3549;42.162;24.726;2023-05-02T07:05:07;47599.81;;;-141.97;45.09
7018;BME280;3549;42.162;24.726;2023-05-02T07:07:32;47530.59;;;-141.97;44.39
7018;BME280;3549;42.162;24.726;2023-05-02T07:09:58;47607.50;;;-141.97;44.05
7018;BME280;3549;42.162;24.726;2023-05-02T07:12:24;47574.81;;;-141.97;43.85
7018;BME280;3549;42.162;24.726;2023-05-02T07:14:50;47561.38;;;-141.97;43.56
7018;BME280;3549;42.162;24.726;2023-05-02T07:17:16;47594.03;;;-141.97;43.47
7018;BME280;3549;42.162;24.726;2023-05-02T07:19:41;47592.13;;;-141.97;42.29
7018;BME280;3549;42.162;24.726;2023-05-02T07:22:07;47546.00;;;-141.97;42.41
7018;BME280;3549;42.162;24.726;2023-05-02T07:24:32;47588.28;;;-141.97;41.97
7018;BME280;3549;42.162;24.726;2023-05-02T07:26:58;47551.75;;;-141.97;40.54
7018;BME280;3549;42.162;24.726;2023-05-02T07:29:23;47590.19;;;-141.97;40.09
7018;BME280;3549;42.162;24.726;2023-05-02T07:31:49;47599.81;;;-141.97;40.05
7018;BME280;3549;42.162;24.726;2023-05-02T07:34:15;47615.19;;;-141.97;39.79
7018;BME280;3549;42.162;24.726;2023-05-02T07:36:40;47567.13;;;-141.97;38.66
7018;BME280;3549;42.162;24.726;2023-05-02T07:39:06;47659.38;;;-141.97;38.56
7018;BME280;3549;42.162;24.726;2023-05-02T07:41:31;47496.00;;;-141.97;38.49
7018;BME280;3549;42.162;24.726;2023-05-02T07:43:57;47561.38;;;-141.97;37.99
7018;BME280;3549;42.162;24.726;2023-05-02T07:46:22;47563.28;;;-141.97;37.89
7018;BME280;3549;42.162;24.726;2023-05-02T07:48:48;47576.75;;;-141.97;37.79
7018;BME280;3549;42.162;24.726;2023-05-02T07:51:14;47574.81;;;-141.97;37.77
7018;BME280;3549;42.162;24.726;2023-05-02T07:53:39;47572.91;;;-141.97;37.08
7018;BME280;3549;42.162;24.726;2023-05-02T07:56:05;47565.22;;;-141.97;36.16
7018;BME280;3549;42.162;24.726;2023-05-02T07:58:31;47434.50;;;-141.97;36.41
7018;BME280;3549;42.162;24.726;2023-05-02T08:00:57;47546.00;;;-141.97;35.83
7018;BME280;3549;42.162;24.726;2023-05-02T08:03:22;47553.69;;;-141.97;34.88
7018;BME280;3549;42.162;24.726;2023-05-02T08:05:48;47546.00;;;-141.97;34.62
7018;BME280;3549;42.162;24.726;2023-05-02T08:08:13;47576.75;;;-141.97;34.97
7018;BME280;3549;42.162;24.726;2023-05-02T08:10:39;47549.84;;;-141.97;34.27
7018;BME280;3549;42.162;24.726;2023-05-02T08:13:07;47555.59;;;-141.97;33.88
7018;BME280;3549;42.162;24.726;2023-05-02T08:15:33;47530.59;;;-141.97;33.62
7018;BME280;3549;42.162;24.726;2023-05-02T08:17:58;47553.69;;;-141.97;32.68
7018;BME280;3549;42.162;24.726;2023-05-02T08:20:24;47465.25;;;-141.97;32.66
7018;BME280;3549;42.162;24.726;2023-05-02T08:22:49;47542.16;;;-141.97;32.35
7018;BME280;3549;42.162;24.726;2023-05-02T08:25:15;47547.91;;;-141.97;32.19
7018;BME280;3549;42.162;24.726;2023-05-02T08:27:41;47526.75;;;-141.97;32.41
7018;BME280;3549;42.162;24.726;2023-05-02T08:30:06;47536.38;;;-141.97;31.85
7018;BME280;3549;42.162;24.726;2023-05-02T08:32:32;47634.41;;;-141.97;32.21
7018;BME280;3549;42.162;24.726;2023-05-02T08:34:58;47519.06;;;-141.97;32.42
7018;BME280;3549;42.162;24.726;2023-05-02T08:37:23;47582.50;;;-141.97;32.17
7018;BME280;3549;42.162;24.726;2023-05-02T08:39:49;47563.28;;;-141.97;31.50
7018;BME280;3549;42.162;24.726;2023-05-02T08:42:15;47561.38;;;-141.97;31.50
7018;BME280;3549;42.162;24.726;2023-05-02T08:44:47;47530.59;;;-141.97;31.81
7018;BME280;3549;42.162;24.726;2023-05-02T08:47:14;47553.69;;;-141.97;31.58
7018;BME280;3549;42.162;24.726;2023-05-02T08:49:39;47549.84;;;-141.97;31.50
7018;BME280;3549;42.162;24.726;2023-05-02T08:52:07;47474.88;;;-141.97;31.13
7018;BME280;3549;42.162;24.726;2023-05-02T08:54:36;47519.06;;;-141.97;30.67
7018;BME280;3549;42.162;24.726;2023-05-02T08:57:03;47526.75;;;-141.97;31.08
7018;BME280;3549;42.162;24.726;2023-05-02T08:59:29;47657.47;;;-141.97;31.09
7018;BME280;3549;42.162;24.726;2023-05-02T09:01:58;47557.53;;;-141.97;30.86
7018;BME280;3549;42.162;24.726;2023-05-02T09:04:30;47499.84;;;-141.97;30.31
7018;BME280;3549;42.162;24.726;2023-05-02T09:06:57;47549.84;;;-141.97;30.62
7018;BME280;3549;42.162;24.726;2023-05-02T09:09:23;47455.66;;;-141.97;31.03
7018;BME280;3549;42.162;24.726;2023-05-02T09:11:50;47522.91;;;-141.97;30.36
7018;BME280;3549;42.162;24.726;2023-05-02T09:14:16;47522.91;;;-141.97;30.24
7018;BME280;3549;42.162;24.726;2023-05-02T09:16:42;47507.53;;;-141.97;30.71
7018;BME280;3549;42.162;24.726;2023-05-02T09:19:08;47544.06;;;-141.97;30.66
7018;BME280;3549;42.162;24.726;2023-05-02T09:21:37;47532.53;;;-141.97;30.63
7018;BME280;3549;42.162;24.726;2023-05-02T09:24:33;47538.28;;;-141.97;30.33
7018;BME280;3549;42.162;24.726;2023-05-02T09:27:03;47521.00;;;-141.97;30.66
7018;BME280;3549;42.162;24.726;2023-05-02T09:29:30;47453.72;;;-141.97;30.66
7018;BME280;3549;42.162;24.726;2023-05-02T09:32:03;47515.22;;;-141.97;30.82
7018;BME280;3549;42.162;24.726;2023-05-02T09:34:32;47471.03;;;-141.97;31.00
7018;BME280;3549;42.162;24.726;2023-05-02T09:37:01;47511.38;;;-141.97;31.11
7018;BME280;3549;42.162;24.726;2023-05-02T09:39:29;47496.00;;;-141.97;29.76
7018;BME280;3549;42.162;24.726;2023-05-02T09:41:56;47517.16;;;-141.97;30.20
7018;BME280;3549;42.162;24.726;2023-05-02T09:44:23;47522.91;;;-141.97;30.22
7018;BME280;3549;42.162;24.726;2023-05-02T09:46:52;47546.00;;;-141.97;30.43
7018;BME280;3549;42.162;24.726;2023-05-02T09:49:26;47553.69;;;-141.97;30.37
7018;BME280;3549;42.162;24.726;2023-05-02T09:52:16;47530.59;;;-141.97;30.46
7018;BME280;3549;42.162;24.726;2023-05-02T09:54:42;47547.91;;;-141.97;30.63
7018;BME280;3549;42.162;24.726;2023-05-02T09:57:07;47530.59;;;-141.97;30.65
7018;BME280;3549;42.162;24.726;2023-05-02T09:59:35;47438.34;;;-141.97;30.62
7018;BME280;3549;42.162;24.726;2023-05-02T10:02:04;47507.53;;;-141.97;30.70
7018;BME280;3549;42.162;24.726;2023-05-02T10:04:33;47565.22;;;-141.97;30.89
7018;BME280;3549;42.162;24.726;2023-05-02T10:06:59;47505.63;;;-141.97;30.62
7018;BME280;3549;42.162;24.726;2023-05-02T10:09:26;47503.69;;;-141.97;30.66
7018;BME280;3549;42.162;24.726;2023-05-02T10:11:54;47519.06;;;-141.97;30.74
7018;BME280;3549;42.162;24.726;2023-05-02T10:14:22;47524.84;;;-141.97;30.31
7018;BME280;3549;42.162;24.726;2023-05-02T10:19:37;47557.53;;;-141.97;30.53
7018;BME280;3549;42.162;24.726;2023-05-02T10:22:03;47519.06;;;-141.97;30.51
7018;BME280;3549;42.162;24.726;2023-05-02T10:24:31;47546.00;;;-141.97;30.84
7018;BME280;3549;42.162;24.726;2023-05-02T10:26:58;47484.47;;;-141.97;30.29
7018;BME280;3549;42.162;24.726;2023-05-02T10:29:30;47547.91;;;-141.97;30.21
7018;BME280;3549;42.162;24.726;2023-05-02T10:31:57;47542.16;;;-141.97;30.31
7018;BME280;3549;42.162;24.726;2023-05-02T10:34:26;47492.16;;;-141.97;29.42
7018;BME280;3549;42.162;24.726;2023-05-02T10:36:51;47551.75;;;-141.97;29.57
7018;BME280;3549;42.162;24.726;2023-05-02T10:39:19;47496.00;;;-141.97;29.62
7018;BME280;3549;42.162;24.726;2023-05-02T10:41:50;47546.00;;;-141.97;29.82
7018;BME280;3549;42.162;24.726;2023-05-02T10:44:31;47515.22;;;-141.97;29.65
7018;BME280;3549;42.162;24.726;2023-05-02T10:46:56;47553.69;;;-141.97;29.38
7018;BME280;3549;42.162;24.726;2023-05-02T10:49:22;47507.53;;;-141.97;29.07
7018;BME280;3549;42.162;24.726;2023-05-02T10:51:51;47465.25;;;-141.97;29.50
7018;BME280;3549;42.162;24.726;2023-05-02T10:59:27;47544.06;;;-141.97;29.30
7018;BME280;3549;42.162;24.726;2023-05-02T11:01:53;47546.00;;;-141.97;29.24
7018;BME280;3549;42.162;24.726;2023-05-02T11:04:19;47530.59;;;-141.97;29.27
7018;BME280;3549;42.162;24.726;2023-05-02T11:11:47;47472.94;;;-141.97;29.79
7018;BME280;3549;42.162;24.726;2023-05-02T11:19:28;47492.16;;;-141.97;28.95
7018;BME280;3549;42.162;24.726;2023-05-02T11:24:43;47494.09;;;-141.97;27.44
7018;BME280;3549;42.162;24.726;2023-05-02T11:27:40;47505.63;;;-141.97;27.16
7018;BME280;3549;42.162;24.726;2023-05-02T11:30:09;47501.78;;;-141.97;27.51
7018;BME280;3549;42.162;24.726;2023-05-02T11:35:24;47494.09;;;-141.97;27.51
7018;BME280;3549;42.162;24.726;2023-05-02T11:40:21;47530.59;;;-141.97;27.60
7018;BME280;3549;42.162;24.726;2023-05-02T11:42:47;47497.94;;;-141.97;27.28
7018;BME280;3549;42.162;24.726;2023-05-02T11:45:12;47488.31;;;-141.97;27.22
7018;BME280;3549;42.162;24.726;2023-05-02T11:47:38;47424.91;;;-141.97;26.55
7018;BME280;3549;42.162;24.726;2023-05-02T11:50:04;47442.19;;;-141.97;26.09
7018;BME280;3549;42.162;24.726;2023-05-02T11:52:36;47486.41;;;-141.97;25.95
7018;BME280;3549;42.162;24.726;2023-05-02T11:55:01;47469.09;;;-141.97;25.69
7018;BME280;3549;42.162;24.726;2023-05-02T11:57:27;47455.66;;;-141.97;25.71
7018;BME280;3549;42.162;24.726;2023-05-02T11:59:54;47330.72;;;-141.97;25.46
7018;BME280;3549;42.162;24.726;2023-05-02T12:02:37;47394.16;;;-141.97;24.73
7018;BME280;3549;42.162;24.726;2023-05-02T12:05:03;47405.69;;;-141.97;24.76
7018;BME280;3549;42.162;24.726;2023-05-02T12:10:01;47349.94;;;-141.97;25.25
7018;BME280;3549;42.162;24.726;2023-05-02T12:12:26;47542.16;;;-141.97;25.17
7018;BME280;3549;42.162;24.726;2023-05-02T12:14:52;47323.03;;;-141.97;24.92
7018;BME280;3549;42.162;24.726;2023-05-02T12:17:18;47434.50;;;-141.97;24.90
7018;BME280;3549;42.162;24.726;2023-05-02T12:19:43;47422.97;;;-141.97;24.53
7018;BME280;3549;42.162;24.726;2023-05-02T12:22:09;47432.59;;;-141.97;24.76
7018;BME280;3549;42.162;24.726;2023-05-02T12:24:35;47409.53;;;-141.97;24.93
7018;BME280;3549;42.162;24.726;2023-05-02T12:27:10;47442.19;;;-141.97;25.68
7018;BME280;3549;42.162;24.726;2023-05-02T12:29:37;47449.88;;;-141.97;26.58
7018;BME280;3549;42.162;24.726;2023-05-02T12:32:03;47472.94;;;-141.97;26.17
7018;BME280;3549;42.162;24.726;2023-05-02T12:34:32;47442.19;;;-141.97;25.69
7018;BME280;3549;42.162;24.726;2023-05-02T12:36:58;47426.81;;;-141.97;25.38
7018;BME280;3549;42.162;24.726;2023-05-02T12:39:41;47444.13;;;-141.97;25.81
7018;BME280;3549;42.162;24.726;2023-05-02T12:42:14;47415.28;;;-141.97;25.76
7018;BME280;3549;42.162;24.726;2023-05-02T12:44:42;47419.13;;;-141.97;25.86
7018;BME280;3549;42.162;24.726;2023-05-02T12:47:11;47444.13;;;-141.97;25.37
7018;BME280;3549;42.162;24.726;2023-05-02T12:49:54;47349.94;;;-141.97;25.37
7018;BME280;3549;42.162;24.726;2023-05-02T12:52:46;47453.72;;;-141.97;25.72
7018;BME280;3549;42.162;24.726;2023-05-02T12:57:41;47474.88;;;-141.97;25.63
7018;BME280;3549;42.162;24.726;2023-05-02T13:00:07;47446.03;;;-141.97;25.38
7018;BME280;3549;42.162;24.726;2023-05-02T13:02:35;47449.88;;;-141.97;25.55
7018;BME280;3549;42.162;24.726;2023-05-02T13:05:00;47467.19;;;-141.97;25.61
7018;BME280;3549;42.162;24.726;2023-05-02T13:07:25;47488.31;;;-141.97;25.63
7018;BME280;3549;42.162;24.726;2023-05-02T13:09:51;47422.97;;;-141.97;25.49
7018;BME280;3549;42.162;24.726;2023-05-02T13:12:16;47451.81;;;-141.97;24.94
7018;BME280;3549;42.162;24.726;2023-05-02T13:14:42;47349.94;;;-141.97;25.25
7018;BME280;3549;42.162;24.726;2023-05-02T13:17:08;47398.00;;;-141.97;24.92
7018;BME280;3549;42.162;24.726;2023-05-02T13:19:33;47349.94;;;-141.97;24.45
7018;BME280;3549;42.162;24.726;2023-05-02T13:21:59;47424.91;;;-141.97;24.20
7018;BME280;3549;42.162;24.726;2023-05-02T13:24:24;47359.56;;;-141.97;24.46
7018;BME280;3549;42.162;24.726;2023-05-02T13:26:50;47415.28;;;-141.97;24.50
7018;BME280;3549;42.162;24.726;2023-05-02T13:29:16;47422.97;;;-141.97;24.63
7018;BME280;3549;42.162;24.726;2023-05-02T13:31:41;47409.53;;;-141.97;25.21
7018;BME280;3549;42.162;24.726;2023-05-02T13:34:07;47676.69;;;-141.97;25.57
7018;BME280;3549;42.162;24.726;2023-05-02T13:36:32;47253.84;;;-141.97;25.01
7018;BME280;3549;42.162;24.726;2023-05-02T13:38:58;47373.00;;;-141.97;24.84
7018;BME280;3549;42.162;24.726;2023-05-02T13:41:23;47519.06;;;-141.97;24.33